Time;durP1;ratioP1;P1;durP2;ratioP2;P2;SDS_P1;SDS_P2;PMS_P1;PMS_P2;Temp;Humidity;BMP_temperature;BMP_pressure;BME280_temperature;BME280_humidity;BME280_pressure;Samples;Min_cycle;Max_cycle;Signal;HPM_P1;HPM_P2
2023/08/13 00:00:10;;;;;;;4.03;3.30;;;;;;;;;;10294788;28;20069;-63
2023/08/13 00:05:10;;;;;;;3.80;3.17;;;;;;;;;;10294023;28;20080;-63
2023/08/13 00:10:09;;;;;;;10.95;4.93;;;;;;;;;;10294514;28;20517;-63
2023/08/13 00:15:08;;;;;;;9.38;6.20;;;;;;;;;;10292256;28;20072;-64
2023/08/13 00:20:07;;;;;;;8.65;5.45;;;;;;;;;;10294933;28;20490;-63
2023/08/13 00:25:07;;;;;;;6.15;5.00;;;;;;;;;;10297271;28;20085;-63
2023/08/13 00:30:06;;;;;;;5.63;5.00;;;;;;;;;;10293319;28;20111;-63
2023/08/13 00:35:05;;;;;;;7.53;4.68;;;;;;;;;;10293373;28;20080;-64
2023/08/13 00:40:05;;;;;;;5.03;4.53;;;;;;;;;;10295294;28;20073;-65
2023/08/13 00:45:05;;;;;;;6.13;4.85;;;;;;;;;;10293911;28;20549;-65
2023/08/13 00:50:04;;;;;;;6.43;4.32;;;;;;;;;;10291844;28;20080;-64
2023/08/13 00:55:03;;;;;;;4.68;3.88;;;;;;;;;;10295268;28;20595;-64
2023/08/13 01:00:02;;;;;;;4.38;3.92;;;;;;;;;;10277260;28;20077;-63
2023/08/13 01:05:03;;;;;;;3.90;3.50;;;;;;;;;;10293735;28;20565;-64
2023/08/13 01:10:09;;;;;;;4.70;3.53;;;;;;;;;;10292838;28;20087;-64
2023/08/13 01:15:09;;;;;;;3.95;3.55;;;;;;;;;;10290449;28;20071;-63
2023/08/13 01:20:09;;;;;;;5.53;4.43;;;;;;;;;;10273484;28;20076;-63
2023/08/13 01:25:11;;;;;;;4.97;3.75;;;;;;;;;;10289717;28;20053;-63
2023/08/13 01:30:11;;;;;;;4.20;3.80;;;;;;;;;;10293220;28;20080;-63
2023/08/13 01:35:10;;;;;;;10.35;4.40;;;;;;;;;;10295992;28;20442;-64
2023/08/13 01:40:11;;;;;;;5.13;3.60;;;;;;;;;;10279897;28;20087;-64
2023/08/13 01:45:10;;;;;;;4.78;3.42;;;;;;;;;;10274630;28;20474;-64
2023/08/13 01:50:09;;;;;;;5.75;4.68;;;;;;;;;;10292306;28;20087;-64
2023/08/13 01:55:08;;;;;;;6.53;5.03;;;;;;;;;;10288981;28;20462;-64
2023/08/13 02:00:08;;;;;;;6.55;4.75;;;;;;;;;;10292868;28;20079;-64
2023/08/13 02:05:08;;;;;;;7.22;5.00;;;;;;;;;;10291051;28;20076;-64
2023/08/13 02:10:06;;;;;;;9.95;4.45;;;;;;;;;;10290919;28;20065;-64
2023/08/13 02:15:05;;;;;;;5.07;4.28;;;;;;;;;;10293869;28;20485;-64
2023/08/13 02:20:05;;;;;;;5.13;4.18;;;;;;;;;;10288080;28;20474;-64
2023/08/13 02:25:04;;;;;;;8.40;4.00;;;;;;;;;;10290431;28;20507;-64
2023/08/13 02:30:02;;;;;;;4.75;3.80;;;;;;;;;;10291611;28;20117;-64
2023/08/13 02:35:03;;;;;;;7.15;4.82;;;;;;;;;;10292920;28;20095;-64
2023/08/13 02:40:02;;;;;;;5.35;4.00;;;;;;;;;;10289833;28;20075;-64
2023/08/13 02:45:00;;;;;;;4.97;4.00;;;;;;;;;;10290428;28;20068;-64
2023/08/13 02:49:59;;;;;;;7.57;3.33;;;;;;;;;;10272735;28;20489;-64
2023/08/13 02:54:58;;;;;;;3.78;3.47;;;;;;;;;;10274557;28;20530;-64
2023/08/13 02:59:57;;;;;;;4.55;4.10;;;;;;;;;;10291141;28;20076;-64
2023/08/13 03:04:55;;;;;;;3.85;3.30;;;;;;;;;;10289868;28;20069;-64
2023/08/13 03:09:54;;;;;;;7.70;3.70;;;;;;;;;;10292130;28;20083;-64
2023/08/13 03:14:52;;;;;;;10.10;3.53;;;;;;;;;;10296459;28;20126;-64
2023/08/13 03:19:52;;;;;;;7.50;3.50;;;;;;;;;;10296284;28;20068;-64
2023/08/13 03:24:50;;;;;;;4.05;3.65;;;;;;;;;;10280047;28;20532;-64
2023/08/13 03:29:49;;;;;;;7.45;3.97;;;;;;;;;;10296456;28;20088;-64
2023/08/13 03:34:47;;;;;;;8.98;3.97;;;;;;;;;;10295216;28;20065;-64
2023/08/13 03:39:48;;;;;;;8.13;4.20;;;;;;;;;;10279397;28;20075;-64
2023/08/13 03:44:46;;;;;;;5.65;3.80;;;;;;;;;;10280423;28;20044;-64
2023/08/13 03:49:45;;;;;;;4.90;4.03;;;;;;;;;;10282456;28;20087;-63
2023/08/13 03:54:43;;;;;;;6.78;4.07;;;;;;;;;;10303355;28;20071;-64
2023/08/13 03:59:42;;;;;;;5.50;3.88;;;;;;;;;;10293840;28;20045;-64
2023/08/13 04:04:41;;;;;;;6.28;3.85;;;;;;;;;;10293332;28;20525;-64
2023/08/13 04:09:39;;;;;;;4.07;3.50;;;;;;;;;;10293128;28;20075;-64
2023/08/13 04:14:38;;;;;;;6.75;5.07;;;;;;;;;;10278860;28;20546;-64
2023/08/13 04:19:37;;;;;;;11.05;4.72;;;;;;;;;;10295110;28;20075;-64
2023/08/13 04:24:36;;;;;;;8.20;4.97;;;;;;;;;;10276678;28;20084;-64
2023/08/13 04:29:35;;;;;;;5.93;5.32;;;;;;;;;;10294845;28;20505;-64
2023/08/13 04:34:34;;;;;;;13.13;5.68;;;;;;;;;;10279011;28;20087;-64
2023/08/13 04:39:35;;;;;;;8.60;4.85;;;;;;;;;;10294741;28;20072;-64
2023/08/13 04:44:33;;;;;;;6.32;4.43;;;;;;;;;;10277905;28;20075;-65
2023/08/13 04:49:32;;;;;;;4.43;4.03;;;;;;;;;;10276563;28;20084;-64
2023/08/13 04:54:31;;;;;;;8.85;4.35;;;;;;;;;;10278891;28;20537;-64
2023/08/13 04:59:31;;;;;;;6.38;4.40;;;;;;;;;;10279590;28;20076;-64
2023/08/13 05:04:29;;;;;;;5.10;3.63;;;;;;;;;;10294678;28;20077;-63
2023/08/13 05:09:28;;;;;;;7.28;3.70;;;;;;;;;;10294087;28;20076;-63
2023/08/13 05:14:27;;;;;;;6.50;3.63;;;;;;;;;;10276007;28;20080;-64
2023/08/13 05:19:28;;;;;;;4.30;3.90;;;;;;;;;;10271478;28;20037;-63
2023/08/13 05:24:26;;;;;;;5.65;3.92;;;;;;;;;;10278215;28;20084;-64
2023/08/13 05:29:25;;;;;;;5.80;4.10;;;;;;;;;;10287166;28;20497;-62
2023/08/13 05:34:23;;;;;;;6.55;4.25;;;;;;;;;;10266864;28;20170;-63
2023/08/13 05:39:23;;;;;;;7.07;4.07;;;;;;;;;;10289906;28;20071;-63
2023/08/13 05:44:21;;;;;;;5.05;4.03;;;;;;;;;;10288601;28;20334;-64
2023/08/13 05:49:21;;;;;;;5.90;3.97;;;;;;;;;;10268669;28;20076;-64
2023/08/13 05:54:19;;;;;;;7.57;4.45;;;;;;;;;;10287606;28;20083;-65
2023/08/13 05:59:19;;;;;;;5.38;4.78;;;;;;;;;;10290848;28;20072;-63
2023/08/13 06:04:17;;;;;;;7.70;6.65;;;;;;;;;;10289258;28;20811;-63
2023/08/13 06:09:15;;;;;;;6.35;4.55;;;;;;;;;;10288964;28;20108;-64
2023/08/13 06:14:13;;;;;;;6.57;5.88;;;;;;;;;;10283454;28;20076;-65
2023/08/13 06:19:13;;;;;;;6.25;4.63;;;;;;;;;;10288027;28;20064;-65
2023/08/13 06:24:11;;;;;;;5.32;3.47;;;;;;;;;;10287969;28;20084;-65
2023/08/13 06:29:09;;;;;;;6.88;4.30;;;;;;;;;;10288489;28;20088;-64
2023/08/13 06:34:10;;;;;;;7.57;5.30;;;;;;;;;;10289897;28;20081;-64
2023/08/13 06:39:09;;;;;;;6.50;4.20;;;;;;;;;;10288292;28;20052;-64
2023/08/13 06:44:07;;;;;;;8.50;4.32;;;;;;;;;;10290126;28;20072;-63
2023/08/13 06:49:06;;;;;;;8.07;4.57;;;;;;;;;;10287336;28;20076;-63
2023/08/13 06:54:04;;;;;;;7.20;5.38;;;;;;;;;;10287619;28;20472;-65
2023/08/13 06:59:04;;;;;;;6.05;4.82;;;;;;;;;;10289370;28;20100;-64
2023/08/13 07:04:03;;;;;;;4.80;4.35;;;;;;;;;;10286842;28;20102;-64
2023/08/13 07:09:03;;;;;;;6.40;5.30;;;;;;;;;;10286139;28;20621;-64
2023/08/13 07:14:03;;;;;;;10.50;6.68;;;;;;;;;;10279796;28;20123;-64
2023/08/13 07:19:02;;;;;;;6.20;4.18;;;;;;;;;;10284157;28;20095;-65
2023/08/13 07:24:02;;;;;;;5.85;5.18;;;;;;;;;;10286289;28;20073;-64
2023/08/13 07:29:00;;;;;;;6.88;4.32;;;;;;;;;;10286688;28;20060;-65
2023/08/13 07:33:58;;;;;;;5.15;4.32;;;;;;;;;;10289540;28;20080;-64
2023/08/13 07:38:58;;;;;;;8.23;4.68;;;;;;;;;;10284505;28;20479;-64
2023/08/13 07:43:56;;;;;;;9.40;4.82;;;;;;;;;;10283250;28;20071;-64
2023/08/13 07:48:55;;;;;;;8.32;4.90;;;;;;;;;;10290757;28;20079;-64
2023/08/13 07:53:53;;;;;;;8.52;4.55;;;;;;;;;;10287070;28;20080;-64
2023/08/13 07:58:52;;;;;;;5.80;4.38;;;;;;;;;;10293650;28;20065;-64
2023/08/13 08:03:51;;;;;;;9.10;4.78;;;;;;;;;;10291203;28;20063;-65
2023/08/13 08:08:50;;;;;;;10.82;5.60;;;;;;;;;;10294546;28;20087;-64
2023/08/13 08:13:50;;;;;;;11.55;4.82;;;;;;;;;;10290646;28;20080;-64
2023/08/13 08:18:50;;;;;;;11.07;6.68;;;;;;;;;;10293142;28;20068;-64
2023/08/13 08:23:48;;;;;;;12.10;6.45;;;;;;;;;;10292903;28;20789;-64
2023/08/13 08:28:46;;;;;;;12.50;7.15;;;;;;;;;;10293612;28;20060;-64
2023/08/13 08:33:45;;;;;;;9.48;5.82;;;;;;;;;;10293495;28;20494;-64
2023/08/13 08:38:44;;;;;;;7.20;4.30;;;;;;;;;;10294854;28;20302;-64
2023/08/13 08:43:45;;;;;;;10.18;4.28;;;;;;;;;;10291369;28;20076;-66
2023/08/13 08:48:58;;;;;;;6.68;4.53;;;;;;;;;;10290298;28;20060;-65
2023/08/13 08:54:08;;;;;;;9.05;4.35;;;;;;;;;;10293183;28;20079;-64
2023/08/13 08:59:06;;;;;;;8.13;4.68;;;;;;;;;;10289771;28;20509;-64
2023/08/13 09:04:05;;;;;;;7.38;4.63;;;;;;;;;;10294424;28;20064;-64
2023/08/13 09:09:05;;;;;;;9.27;4.82;;;;;;;;;;10291947;28;20079;-63
2023/08/13 09:14:05;;;;;;;6.85;4.13;;;;;;;;;;10291686;28;20079;-64
2023/08/13 09:19:04;;;;;;;8.77;4.28;;;;;;;;;;10291626;28;20083;-64
2023/08/13 09:24:11;;;;;;;7.18;5.78;;;;;;;;;;10292626;28;20072;-64
2023/08/13 09:29:12;;;;;;;7.35;4.05;;;;;;;;;;10292943;28;20072;-65
2023/08/13 09:34:11;;;;;;;7.38;2.92;;;;;;;;;;10294197;28;20076;-65
2023/08/13 09:39:10;;;;;;;3.63;3.00;;;;;;;;;;10292341;28;20071;-65
2023/08/13 09:44:09;;;;;;;5.53;4.18;;;;;;;;;;10288457;28;20080;-65
2023/08/13 09:49:11;;;;;;;4.63;2.95;;;;;;;;;;10276334;28;20081;-64
2023/08/13 09:54:13;;;;;;;3.83;3.42;;;;;;;;;;10292706;28;20091;-64
2023/08/13 09:59:12;;;;;;;4.22;3.83;;;;;;;;;;10291188;28;20060;-64
2023/08/13 10:04:12;;;;;;;3.40;3.10;;;;;;;;;;10290677;28;20064;-64
2023/08/13 10:09:10;;;;;;;3.30;2.90;;;;;;;;;;10290897;28;20075;-64
2023/08/13 10:14:09;;;;;;;4.13;2.78;;;;;;;;;;10291521;28;20084;-64
2023/08/13 10:19:07;;;;;;;4.35;3.33;;;;;;;;;;10288191;28;20069;-64
2023/08/13 10:24:13;;;;;;;5.22;3.10;;;;;;;;;;10293101;28;20084;-64
2023/08/13 10:29:17;;;;;;;3.83;2.63;;;;;;;;;;10288951;28;20080;-63
2023/08/13 10:34:17;;;;;;;4.28;2.65;;;;;;;;;;10287974;28;20072;-63
2023/08/13 10:39:39;;;;;;;2.88;2.58;;;;;;;;;;10288285;28;20453;-63
2023/08/13 10:44:41;;;;;;;3.28;2.97;;;;;;;;;;10290730;28;20476;-64
2023/08/13 10:49:41;;;;;;;4.05;3.40;;;;;;;;;;10289464;28;20095;-64
2023/08/13 10:54:40;;;;;;;3.28;2.95;;;;;;;;;;10288480;28;20075;-64
2023/08/13 10:59:40;;;;;;;4.53;2.80;;;;;;;;;;10287906;28;20077;-64
2023/08/13 11:04:40;;;;;;;3.33;2.65;;;;;;;;;;10291186;28;20083;-63
2023/08/13 11:09:39;;;;;;;5.07;2.50;;;;;;;;;;10289392;28;20082;-63
2023/08/13 11:14:38;;;;;;;6.45;3.58;;;;;;;;;;10289551;28;20079;-64
2023/08/13 11:19:36;;;;;;;3.33;2.90;;;;;;;;;;10289369;28;20100;-64
2023/08/13 11:24:37;;;;;;;3.33;3.03;;;;;;;;;;10289863;28;20078;-64
2023/08/13 11:29:35;;;;;;;4.57;3.08;;;;;;;;;;10290332;28;20064;-64
2023/08/13 11:34:34;;;;;;;4.97;2.47;;;;;;;;;;10296930;28;20080;-65
2023/08/13 11:39:32;;;;;;;3.35;3.05;;;;;;;;;;10299139;28;20068;-64
2023/08/13 11:44:32;;;;;;;6.05;3.08;;;;;;;;;;10296820;28;20068;-64
2023/08/13 11:49:31;;;;;;;6.03;3.22;;;;;;;;;;10294785;28;20462;-65
2023/08/13 11:54:29;;;;;;;6.18;3.30;;;;;;;;;;10296811;28;20083;-63
2023/08/13 11:59:29;;;;;;;4.03;2.60;;;;;;;;;;10296119;28;20493;-64
2023/08/13 12:04:31;;;;;;;6.60;3.53;;;;;;;;;;10295420;28;20079;-64
2023/08/13 12:09:34;;;;;;;4.45;2.88;;;;;;;;;;10296018;28;20071;-66
2023/08/13 12:14:33;;;;;;;7.75;3.70;;;;;;;;;;10296082;28;20076;-65
2023/08/13 12:19:32;;;;;;;3.00;2.40;;;;;;;;;;10294742;28;20040;-63
2023/08/13 12:24:30;;;;;;;4.13;3.35;;;;;;;;;;10297972;28;20080;-64
2023/08/13 12:29:29;;;;;;;2.67;2.47;;;;;;;;;;10293288;28;20071;-64
2023/08/13 12:34:27;;;;;;;3.35;2.97;;;;;;;;;;10293395;28;20488;-65
2023/08/13 12:39:26;;;;;;;3.30;2.60;;;;;;;;;;10295124;28;20149;-65
2023/08/13 12:44:25;;;;;;;8.45;2.92;;;;;;;;;;10293489;28;20076;-64
2023/08/13 12:49:23;;;;;;;3.88;2.53;;;;;;;;;;10295428;28;20073;-65
2023/08/13 12:54:21;;;;;;;2.75;2.55;;;;;;;;;;10292499;28;20081;-64
2023/08/13 12:59:21;;;;;;;3.47;2.30;;;;;;;;;;10294685;28;20596;-65
2023/08/13 13:04:19;;;;;;;5.50;2.88;;;;;;;;;;10293979;28;20536;-65
2023/08/13 13:09:18;;;;;;;6.70;3.03;;;;;;;;;;10293806;28;20068;-64
2023/08/13 13:14:16;;;;;;;5.80;2.40;;;;;;;;;;10293462;28;20076;-65
2023/08/13 13:19:16;;;;;;;3.42;2.67;;;;;;;;;;10294989;28;20080;-65
2023/08/13 13:24:14;;;;;;;3.88;2.75;;;;;;;;;;10293314;28;20493;-64
2023/08/13 13:29:12;;;;;;;3.22;2.60;;;;;;;;;;10293325;28;20079;-65
2023/08/13 13:34:10;;;;;;;6.50;2.95;;;;;;;;;;10292790;28;20079;-65
2023/08/13 13:39:14;;;;;;;2.92;2.72;;;;;;;;;;10290372;28;20061;-65
2023/08/13 13:44:12;;;;;;;2.97;2.42;;;;;;;;;;10294177;28;20171;-65
2023/08/13 13:49:11;;;;;;;5.82;3.58;;;;;;;;;;10292667;28;20069;-64
2023/08/13 13:54:09;;;;;;;4.45;2.97;;;;;;;;;;10289353;28;20080;-64
2023/08/13 13:59:09;;;;;;;3.75;2.53;;;;;;;;;;10270724;28;20080;-64
2023/08/13 14:04:07;;;;;;;3.38;2.42;;;;;;;;;;10283209;28;20354;-64
2023/08/13 14:09:06;;;;;;;3.92;3.10;;;;;;;;;;10282812;28;20495;-65
2023/08/13 14:14:06;;;;;;;3.05;2.65;;;;;;;;;;10282947;28;20082;-65
2023/08/13 14:19:06;;;;;;;3.70;2.85;;;;;;;;;;10283275;28;20075;-64
2023/08/13 14:24:04;;;;;;;4.63;2.97;;;;;;;;;;10290894;28;20088;-64
2023/08/13 14:29:02;;;;;;;2.85;2.30;;;;;;;;;;10278942;28;20095;-64
2023/08/13 14:34:01;;;;;;;3.75;2.70;;;;;;;;;;10287475;28;20090;-64
2023/08/13 14:39:02;;;;;;;7.95;2.85;;;;;;;;;;10289130;28;20505;-65
2023/08/13 14:44:01;;;;;;;4.75;2.83;;;;;;;;;;10280221;28;20075;-65
2023/08/13 14:48:59;;;;;;;3.08;2.78;;;;;;;;;;10282651;28;20510;-66
2023/08/13 14:53:58;;;;;;;5.47;2.75;;;;;;;;;;10286757;28;20088;-65
2023/08/13 14:58:57;;;;;;;4.53;2.60;;;;;;;;;;10282671;28;20073;-65
2023/08/13 15:03:56;;;;;;;4.90;2.58;;;;;;;;;;10284500;28;20533;-66
2023/08/13 15:08:54;;;;;;;5.43;3.13;;;;;;;;;;10288569;28;20077;-65
2023/08/13 15:13:53;;;;;;;6.50;2.70;;;;;;;;;;10283966;28;20084;-66
2023/08/13 15:18:52;;;;;;;6.57;4.15;;;;;;;;;;10295368;28;20092;-65
2023/08/13 15:23:51;;;;;;;5.63;4.35;;;;;;;;;;10294090;28;20617;-65
2023/08/13 15:28:52;;;;;;;5.70;3.92;;;;;;;;;;10296148;28;20064;-64
2023/08/13 15:33:50;;;;;;;4.70;3.40;;;;;;;;;;10295015;28;20496;-64
2023/08/13 15:38:49;;;;;;;6.85;3.72;;;;;;;;;;10285232;28;20080;-64
2023/08/13 15:43:48;;;;;;;4.32;3.55;;;;;;;;;;10282666;28;20366;-64
2023/08/13 15:48:46;;;;;;;4.10;3.00;;;;;;;;;;10274118;28;20079;-64
2023/08/13 15:53:45;;;;;;;6.72;3.13;;;;;;;;;;10286578;28;20084;-64
2023/08/13 15:58:45;;;;;;;5.55;2.92;;;;;;;;;;10289308;28;20576;-65
2023/08/13 16:03:46;;;;;;;3.38;2.88;;;;;;;;;;10287957;28;20072;-64
2023/08/13 16:08:45;;;;;;;5.28;2.95;;;;;;;;;;10285528;28;20087;-65
2023/08/13 16:13:44;;;;;;;8.90;3.15;;;;;;;;;;10279819;28;20090;-64
2023/08/13 16:18:43;;;;;;;8.23;2.88;;;;;;;;;;10281041;28;20084;-65
2023/08/13 16:23:41;;;;;;;10.38;3.55;;;;;;;;;;10277074;28;20077;-64
2023/08/13 16:28:40;;;;;;;5.35;3.75;;;;;;;;;;10274173;28;20075;-64
2023/08/13 16:33:39;;;;;;;6.20;3.63;;;;;;;;;;10284161;28;20064;-65
2023/08/13 16:38:38;;;;;;;7.22;4.32;;;;;;;;;;10286439;28;20064;-66
2023/08/13 16:43:37;;;;;;;7.55;3.40;;;;;;;;;;10289809;28;20076;-65
2023/08/13 16:48:35;;;;;;;7.68;2.83;;;;;;;;;;10286381;28;20072;-66
2023/08/13 16:53:34;;;;;;;5.78;3.75;;;;;;;;;;10287537;28;20084;-66
2023/08/13 16:58:33;;;;;;;4.43;2.75;;;;;;;;;;10289304;28;20071;-67
2023/08/13 17:03:31;;;;;;;6.97;4.15;;;;;;;;;;10281622;28;20084;-65
2023/08/13 17:08:29;;;;;;;5.45;3.30;;;;;;;;;;10283022;28;20083;-65
2023/08/13 17:13:30;;;;;;;5.63;4.60;;;;;;;;;;10282453;28;20069;-66
2023/08/13 17:18:29;;;;;;;6.93;4.63;;;;;;;;;;10290791;28;20083;-67
2023/08/13 17:23:27;;;;;;;6.70;4.40;;;;;;;;;;10284222;28;20082;-69
2023/08/13 17:28:25;;;;;;;6.22;4.45;;;;;;;;;;10286494;28;20330;-67
2023/08/13 17:33:25;;;;;;;11.63;5.43;;;;;;;;;;10284491;28;20072;-67
2023/08/13 17:38:23;;;;;;;10.02;4.22;;;;;;;;;;10283598;28;20060;-68
2023/08/13 17:43:21;;;;;;;6.80;5.57;;;;;;;;;;10288761;28;20071;-68
2023/08/13 17:48:20;;;;;;;6.00;4.70;;;;;;;;;;10289058;28;20073;-68
2023/08/13 17:53:19;;;;;;;10.02;4.50;;;;;;;;;;10283651;28;20520;-69
2023/08/13 17:58:18;;;;;;;10.35;4.47;;;;;;;;;;10286115;28;20068;-67
2023/08/13 18:03:16;;;;;;;5.90;5.03;;;;;;;;;;10286099;28;20107;-68
2023/08/13 18:08:15;;;;;;;9.88;7.18;;;;;;;;;;10284293;28;20514;-68
2023/08/13 18:13:14;;;;;;;7.05;5.70;;;;;;;;;;10282922;28;20532;-69
2023/08/13 18:18:13;;;;;;;6.72;5.55;;;;;;;;;;10278788;28;20083;-68
2023/08/13 18:23:11;;;;;;;9.13;4.90;;;;;;;;;;10284816;28;20088;-68
2023/08/13 18:28:09;;;;;;;12.77;6.85;;;;;;;;;;10287690;28;20076;-68
2023/08/13 18:33:09;;;;;;;8.30;6.32;;;;;;;;;;10283198;28;20072;-67
2023/08/13 18:38:07;;;;;;;5.55;4.95;;;;;;;;;;10284031;28;20072;-67
2023/08/13 18:43:05;;;;;;;11.88;7.00;;;;;;;;;;10287931;28;20065;-66
2023/08/13 18:48:04;;;;;;;5.70;4.55;;;;;;;;;;10287486;28;20095;-67
2023/08/13 18:53:07;;;;;;;7.63;6.80;;;;;;;;;;10291564;28;20075;-69
2023/08/13 18:58:06;;;;;;;8.13;6.43;;;;;;;;;;10285109;28;20459;-68
2023/08/13 19:03:04;;;;;;;6.43;3.95;;;;;;;;;;10284471;28;20471;-68
2023/08/13 19:08:04;;;;;;;4.50;3.90;;;;;;;;;;10284090;28;20076;-67
2023/08/13 19:13:03;;;;;;;4.18;3.60;;;;;;;;;;10283756;28;20080;-67
2023/08/13 19:18:01;;;;;;;8.02;4.38;;;;;;;;;;10285979;28;20083;-68
2023/08/13 19:22:59;;;;;;;3.50;3.20;;;;;;;;;;10283221;28;20077;-69
2023/08/13 19:27:59;;;;;;;5.55;2.75;;;;;;;;;;10289000;28;20075;-68
2023/08/13 19:32:58;;;;;;;4.43;3.40;;;;;;;;;;10284232;28;20064;-68
2023/08/13 19:37:56;;;;;;;4.88;2.28;;;;;;;;;;10282635;28;20075;-68
2023/08/13 19:42:54;;;;;;;6.28;5.65;;;;;;;;;;10283324;28;20065;-67
2023/08/13 19:47:54;;;;;;;3.65;3.20;;;;;;;;;;10277492;28;20079;-68
2023/08/13 19:52:52;;;;;;;6.97;4.32;;;;;;;;;;10293266;28;20072;-68
2023/08/13 19:57:51;;;;;;;5.53;3.83;;;;;;;;;;10295483;28;20534;-67
2023/08/13 20:02:49;;;;;;;3.55;3.22;;;;;;;;;;10296038;28;20533;-67
2023/08/13 20:07:51;;;;;;;4.47;3.03;;;;;;;;;;10298526;28;20071;-67
2023/08/13 20:12:49;;;;;;;6.82;4.07;;;;;;;;;;10292976;28;20072;-67
2023/08/13 20:17:52;;;;;;;7.30;4.05;;;;;;;;;;10296677;28;20075;-67
2023/08/13 20:22:51;;;;;;;3.88;3.20;;;;;;;;;;10293821;28;20077;-67
2023/08/13 20:27:50;;;;;;;5.18;2.50;;;;;;;;;;10285191;28;20076;-67
2023/08/13 20:32:49;;;;;;;4.15;2.30;;;;;;;;;;10294572;28;20064;-66
2023/08/13 20:37:47;;;;;;;3.70;2.50;;;;;;;;;;10291023;28;20071;-66
2023/08/13 20:42:47;;;;;;;2.65;2.45;;;;;;;;;;10290845;28;20072;-67
2023/08/13 20:47:45;;;;;;;3.42;2.45;;;;;;;;;;10294956;28;20065;-67
2023/08/13 20:52:43;;;;;;;2.60;2.20;;;;;;;;;;10292865;28;20485;-68
2023/08/13 20:57:41;;;;;;;4.60;2.47;;;;;;;;;;10291056;28;20492;-68
2023/08/13 21:02:41;;;;;;;3.40;2.67;;;;;;;;;;10292924;28;20075;-67
2023/08/13 21:07:39;;;;;;;2.63;2.10;;;;;;;;;;10289085;28;20061;-68
2023/08/13 21:12:38;;;;;;;2.38;2.17;;;;;;;;;;10293022;28;20098;-68
2023/08/13 21:17:36;;;;;;;2.17;1.88;;;;;;;;;;10296132;28;20068;-68
2023/08/13 21:22:36;;;;;;;3.50;2.60;;;;;;;;;;10292574;28;20127;-68
2023/08/13 21:27:34;;;;;;;2.50;2.28;;;;;;;;;;10292863;28;20088;-68
2023/08/13 21:32:32;;;;;;;2.47;2.28;;;;;;;;;;10290186;28;20490;-68
2023/08/13 21:37:31;;;;;;;2.72;2.42;;;;;;;;;;10292797;28;20522;-68
2023/08/13 21:42:31;;;;;;;5.35;2.63;;;;;;;;;;10291182;28;20441;-68
2023/08/13 21:47:29;;;;;;;4.32;2.67;;;;;;;;;;10291844;28;20079;-68
2023/08/13 21:52:27;;;;;;;3.10;2.80;;;;;;;;;;10291669;28;20075;-68
2023/08/13 21:57:27;;;;;;;2.38;2.17;;;;;;;;;;10293312;28;20100;-68
2023/08/13 22:02:26;;;;;;;3.17;2.80;;;;;;;;;;10290866;28;20072;-68
2023/08/13 22:07:25;;;;;;;3.92;2.80;;;;;;;;;;10288131;28;20072;-69
2023/08/13 22:12:23;;;;;;;2.67;2.47;;;;;;;;;;10290491;28;20472;-67
2023/08/13 22:17:21;;;;;;;2.88;2.17;;;;;;;;;;10290084;28;20072;-68
2023/08/13 22:22:21;;;;;;;6.28;2.88;;;;;;;;;;10289745;28;20159;-68
2023/08/13 22:27:19;;;;;;;3.00;2.53;;;;;;;;;;10290998;28;20071;-68
2023/08/13 22:32:17;;;;;;;4.15;2.70;;;;;;;;;;10290998;28;20057;-67
2023/08/13 22:37:16;;;;;;;6.65;3.40;;;;;;;;;;10288503;28;20072;-67
2023/08/13 22:42:16;;;;;;;3.80;3.05;;;;;;;;;;10292192;28;20060;-67
2023/08/13 22:47:15;;;;;;;6.80;3.80;;;;;;;;;;10291653;28;20079;-68
2023/08/13 22:52:14;;;;;;;4.88;3.72;;;;;;;;;;10291656;28;20107;-68
2023/08/13 22:57:13;;;;;;;6.78;4.60;;;;;;;;;;10287169;28;20102;-66
2023/08/13 23:02:12;;;;;;;4.85;4.18;;;;;;;;;;10289643;28;20083;-67
2023/08/13 23:07:10;;;;;;;5.00;3.45;;;;;;;;;;10287005;28;20413;-67
2023/08/13 23:12:09;;;;;;;4.82;3.35;;;;;;;;;;10290228;28;20083;-67
2023/08/13 23:17:07;;;;;;;4.88;3.00;;;;;;;;;;10287571;28;20510;-68
2023/08/13 23:22:07;;;;;;;8.80;3.03;;;;;;;;;;10287954;28;20064;-67
2023/08/13 23:27:06;;;;;;;7.35;3.45;;;;;;;;;;10290352;28;20069;-67
2023/08/13 23:32:04;;;;;;;3.53;2.90;;;;;;;;;;10298152;28;20080;-68
2023/08/13 23:37:02;;;;;;;5.45;3.13;;;;;;;;;;10296208;28;20080;-68
2023/08/13 23:42:02;;;;;;;4.32;2.90;;;;;;;;;;10294834;28;20068;-68
2023/08/13 23:47:00;;;;;;;3.00;2.70;;;;;;;;;;10289145;28;20072;-68
2023/08/13 23:52:02;;;;;;;4.50;2.92;;;;;;;;;;10291692;28;20076;-68
2023/08/13 23:57:00;;;;;;;5.20;3.13;;;;;;;;;;10298645;28;20076;-68
